Terminal Aerodrome Forecast
Issued by NWS Jacksonville, FL

Home | Current Version | Previous Version | Text Only | Print | Product List | Glossary On
Versions: 1 2 3 4 5 6 7 8 9 10 11 12 13
114
FTUS42 KJAX 301120
TAFJAX
TAF
KJAX 301120Z 3012/3112 29007KT P6SM FEW040
     FM301900 13010KT P6SM VCTS SCT050CB
     FM310200 19006KT P6SM SCT050 BKN150 BKN250
     FM310500 22003KT P6SM SCT150 SCT250=

USA.gov is the U.S. government's official web portal to all federal, state and local government web resources and services.